sensor_id;sensor_type;location;lat;lon;timestamp;P1;durP1;ratioP1;P2;durP2;ratioP2
78581;SDS011;67878;46.242;5.974;2023-07-29T00:00:20;2.88;;;2.35;;
78581;SDS011;67878;46.242;5.974;2023-07-29T00:02:46;3.92;;;2.58;;
78581;SDS011;67878;46.242;5.974;2023-07-29T00:05:11;2.88;;;2.55;;
78581;SDS011;67878;46.242;5.974;2023-07-29T00:07:37;3.28;;;2.75;;
78581;SDS011;67878;46.242;5.974;2023-07-29T00:10:02;3.33;;;2.65;;
78581;SDS011;67878;46.242;5.974;2023-07-29T00:12:28;3.22;;;2.80;;
78581;SDS011;67878;46.242;5.974;2023-07-29T00:14:54;3.92;;;2.70;;
78581;SDS011;67878;46.242;5.974;2023-07-29T00:17:20;3.95;;;2.80;;
78581;SDS011;67878;46.242;5.974;2023-07-29T00:19:45;3.53;;;2.55;;
78581;SDS011;67878;46.242;5.974;2023-07-29T00:22:11;3.25;;;2.42;;
78581;SDS011;67878;46.242;5.974;2023-07-29T00:24:37;2.40;;;2.20;;
78581;SDS011;67878;46.242;5.974;2023-07-29T00:27:02;2.80;;;2.40;;
78581;SDS011;67878;46.242;5.974;2023-07-29T00:29:28;3.47;;;2.40;;
78581;SDS011;67878;46.242;5.974;2023-07-29T00:31:53;4.13;;;2.97;;
78581;SDS011;67878;46.242;5.974;2023-07-29T00:34:18;3.28;;;2.42;;
78581;SDS011;67878;46.242;5.974;2023-07-29T00:36:45;3.35;;;2.90;;
78581;SDS011;67878;46.242;5.974;2023-07-29T00:39:10;3.05;;;2.50;;
78581;SDS011;67878;46.242;5.974;2023-07-29T00:41:36;3.40;;;2.60;;
78581;SDS011;67878;46.242;5.974;2023-07-29T00:44:01;3.40;;;2.67;;
78581;SDS011;67878;46.242;5.974;2023-07-29T00:46:27;4.10;;;2.70;;
78581;SDS011;67878;46.242;5.974;2023-07-29T00:48:54;3.10;;;2.53;;
78581;SDS011;67878;46.242;5.974;2023-07-29T00:51:20;2.97;;;2.53;;
78581;SDS011;67878;46.242;5.974;2023-07-29T00:53:45;3.25;;;2.60;;
78581;SDS011;67878;46.242;5.974;2023-07-29T00:56:11;3.20;;;2.60;;
78581;SDS011;67878;46.242;5.974;2023-07-29T00:58:37;3.25;;;2.58;;
78581;SDS011;67878;46.242;5.974;2023-07-29T01:01:02;3.20;;;2.45;;
78581;SDS011;67878;46.242;5.974;2023-07-29T01:03:28;4.65;;;2.20;;
78581;SDS011;67878;46.242;5.974;2023-07-29T01:05:59;3.03;;;2.60;;
78581;SDS011;67878;46.242;5.974;2023-07-29T01:08:44;3.20;;;2.55;;
78581;SDS011;67878;46.242;5.974;2023-07-29T01:11:16;2.47;;;2.28;;
78581;SDS011;67878;46.242;5.974;2023-07-29T01:13:50;3.00;;;2.65;;
78581;SDS011;67878;46.242;5.974;2023-07-29T01:16:27;4.03;;;2.50;;
78581;SDS011;67878;46.242;5.974;2023-07-29T01:18:56;3.72;;;2.80;;
78581;SDS011;67878;46.242;5.974;2023-07-29T01:21:23;3.63;;;2.80;;
78581;SDS011;67878;46.242;5.974;2023-07-29T01:23:57;4.18;;;2.67;;
78581;SDS011;67878;46.242;5.974;2023-07-29T01:26:24;3.08;;;2.53;;
78581;SDS011;67878;46.242;5.974;2023-07-29T01:28:49;2.65;;;2.35;;
78581;SDS011;67878;46.242;5.974;2023-07-29T01:31:16;3.55;;;2.50;;
78581;SDS011;67878;46.242;5.974;2023-07-29T01:33:50;3.42;;;2.83;;
78581;SDS011;67878;46.242;5.974;2023-07-29T01:36:20;4.25;;;2.72;;
78581;SDS011;67878;46.242;5.974;2023-07-29T01:38:47;3.70;;;2.30;;
78581;SDS011;67878;46.242;5.974;2023-07-29T01:41:13;3.90;;;2.80;;
78581;SDS011;67878;46.242;5.974;2023-07-29T01:43:39;4.72;;;2.88;;
78581;SDS011;67878;46.242;5.974;2023-07-29T01:46:09;4.00;;;2.75;;
78581;SDS011;67878;46.242;5.974;2023-07-29T01:48:36;5.07;;;2.83;;
78581;SDS011;67878;46.242;5.974;2023-07-29T01:51:02;3.03;;;2.72;;
78581;SDS011;67878;46.242;5.974;2023-07-29T01:53:27;3.10;;;2.55;;
78581;SDS011;67878;46.242;5.974;2023-07-29T01:55:52;3.67;;;3.00;;
78581;SDS011;67878;46.242;5.974;2023-07-29T01:58:18;4.53;;;2.95;;
78581;SDS011;67878;46.242;5.974;2023-07-29T02:00:43;3.88;;;3.15;;
78581;SDS011;67878;46.242;5.974;2023-07-29T02:03:08;3.13;;;2.80;;
78581;SDS011;67878;46.242;5.974;2023-07-29T02:05:34;3.78;;;2.78;;
78581;SDS011;67878;46.242;5.974;2023-07-29T02:07:59;3.58;;;2.95;;
78581;SDS011;67878;46.242;5.974;2023-07-29T02:10:24;3.33;;;2.78;;
78581;SDS011;67878;46.242;5.974;2023-07-29T02:12:50;5.65;;;3.47;;
78581;SDS011;67878;46.242;5.974;2023-07-29T02:15:15;4.00;;;3.00;;
78581;SDS011;67878;46.242;5.974;2023-07-29T02:17:41;3.97;;;2.85;;
78581;SDS011;67878;46.242;5.974;2023-07-29T02:20:07;3.33;;;3.00;;
78581;SDS011;67878;46.242;5.974;2023-07-29T02:22:33;3.47;;;2.83;;
78581;SDS011;67878;46.242;5.974;2023-07-29T02:24:59;4.57;;;3.40;;
78581;SDS011;67878;46.242;5.974;2023-07-29T02:27:24;4.13;;;3.10;;
78581;SDS011;67878;46.242;5.974;2023-07-29T02:29:52;3.40;;;3.10;;
78581;SDS011;67878;46.242;5.974;2023-07-29T02:32:17;4.00;;;2.85;;
78581;SDS011;67878;46.242;5.974;2023-07-29T02:34:44;3.33;;;2.97;;
78581;SDS011;67878;46.242;5.974;2023-07-29T02:37:09;4.43;;;3.58;;
78581;SDS011;67878;46.242;5.974;2023-07-29T02:39:34;5.63;;;3.15;;
78581;SDS011;67878;46.242;5.974;2023-07-29T02:42:00;4.53;;;3.20;;
78581;SDS011;67878;46.242;5.974;2023-07-29T02:44:25;4.50;;;3.40;;
78581;SDS011;67878;46.242;5.974;2023-07-29T02:46:50;5.82;;;3.63;;
78581;SDS011;67878;46.242;5.974;2023-07-29T02:49:17;4.68;;;3.15;;
78581;SDS011;67878;46.242;5.974;2023-07-29T02:51:42;4.57;;;2.97;;
78581;SDS011;67878;46.242;5.974;2023-07-29T02:54:08;3.38;;;3.05;;
78581;SDS011;67878;46.242;5.974;2023-07-29T02:56:33;4.85;;;3.20;;
78581;SDS011;67878;46.242;5.974;2023-07-29T02:58:58;4.25;;;3.15;;
78581;SDS011;67878;46.242;5.974;2023-07-29T03:01:25;3.53;;;3.22;;
78581;SDS011;67878;46.242;5.974;2023-07-29T03:03:50;4.47;;;3.28;;
78581;SDS011;67878;46.242;5.974;2023-07-29T03:06:16;3.67;;;3.10;;
78581;SDS011;67878;46.242;5.974;2023-07-29T03:08:41;4.18;;;2.95;;
78581;SDS011;67878;46.242;5.974;2023-07-29T03:11:11;3.90;;;3.05;;
78581;SDS011;67878;46.242;5.974;2023-07-29T03:13:37;4.22;;;2.97;;
78581;SDS011;67878;46.242;5.974;2023-07-29T03:18:32;4.07;;;3.20;;
78581;SDS011;67878;46.242;5.974;2023-07-29T03:20:57;3.42;;;3.13;;
78581;SDS011;67878;46.242;5.974;2023-07-29T03:23:22;4.03;;;3.00;;
78581;SDS011;67878;46.242;5.974;2023-07-29T03:25:48;4.35;;;3.30;;
78581;SDS011;67878;46.242;5.974;2023-07-29T03:28:16;4.70;;;3.28;;
78581;SDS011;67878;46.242;5.974;2023-07-29T03:30:41;3.58;;;2.83;;
78581;SDS011;67878;46.242;5.974;2023-07-29T03:33:07;3.45;;;3.05;;
78581;SDS011;67878;46.242;5.974;2023-07-29T03:35:32;5.15;;;3.28;;
78581;SDS011;67878;46.242;5.974;2023-07-29T03:37:58;4.32;;;3.30;;
78581;SDS011;67878;46.242;5.974;2023-07-29T03:40:23;4.15;;;3.63;;
78581;SDS011;67878;46.242;5.974;2023-07-29T03:42:48;3.55;;;3.13;;
78581;SDS011;67878;46.242;5.974;2023-07-29T03:45:14;3.92;;;3.22;;
78581;SDS011;67878;46.242;5.974;2023-07-29T03:47:40;3.47;;;3.17;;
78581;SDS011;67878;46.242;5.974;2023-07-29T03:50:05;3.85;;;3.17;;
78581;SDS011;67878;46.242;5.974;2023-07-29T03:52:31;3.60;;;3.17;;
78581;SDS011;67878;46.242;5.974;2023-07-29T03:54:56;3.45;;;3.08;;
78581;SDS011;67878;46.242;5.974;2023-07-29T03:57:21;4.03;;;3.38;;
78581;SDS011;67878;46.242;5.974;2023-07-29T03:59:47;3.50;;;3.00;;
78581;SDS011;67878;46.242;5.974;2023-07-29T04:02:12;3.92;;;3.03;;
78581;SDS011;67878;46.242;5.974;2023-07-29T04:04:37;4.20;;;3.40;;
78581;SDS011;67878;46.242;5.974;2023-07-29T04:07:03;4.40;;;3.00;;
78581;SDS011;67878;46.242;5.974;2023-07-29T04:09:29;3.95;;;3.25;;
78581;SDS011;67878;46.242;5.974;2023-07-29T04:11:54;3.42;;;3.13;;
78581;SDS011;67878;46.242;5.974;2023-07-29T04:14:19;3.92;;;3.17;;
78581;SDS011;67878;46.242;5.974;2023-07-29T04:16:46;3.60;;;3.15;;
78581;SDS011;67878;46.242;5.974;2023-07-29T04:19:11;3.03;;;2.72;;
78581;SDS011;67878;46.242;5.974;2023-07-29T04:21:36;3.80;;;3.15;;
78581;SDS011;67878;46.242;5.974;2023-07-29T04:24:02;3.65;;;3.05;;
78581;SDS011;67878;46.242;5.974;2023-07-29T04:26:27;3.70;;;3.28;;
78581;SDS011;67878;46.242;5.974;2023-07-29T04:28:53;3.50;;;2.90;;
78581;SDS011;67878;46.242;5.974;2023-07-29T04:31:18;3.50;;;2.92;;
78581;SDS011;67878;46.242;5.974;2023-07-29T04:33:43;4.00;;;3.30;;
78581;SDS011;67878;46.242;5.974;2023-07-29T04:36:09;3.47;;;2.92;;
78581;SDS011;67878;46.242;5.974;2023-07-29T04:38:37;4.10;;;2.83;;
78581;SDS011;67878;46.242;5.974;2023-07-29T04:41:02;3.42;;;3.05;;
78581;SDS011;67878;46.242;5.974;2023-07-29T04:43:28;3.75;;;3.10;;
78581;SDS011;67878;46.242;5.974;2023-07-29T04:45:55;3.13;;;2.83;;
78581;SDS011;67878;46.242;5.974;2023-07-29T04:48:20;4.05;;;2.92;;
78581;SDS011;67878;46.242;5.974;2023-07-29T04:50:46;3.50;;;2.75;;
78581;SDS011;67878;46.242;5.974;2023-07-29T04:53:11;4.32;;;3.63;;
78581;SDS011;67878;46.242;5.974;2023-07-29T04:55:36;3.35;;;3.05;;
78581;SDS011;67878;46.242;5.974;2023-07-29T04:58:02;3.22;;;2.92;;
78581;SDS011;67878;46.242;5.974;2023-07-29T05:00:27;3.40;;;3.05;;
78581;SDS011;67878;46.242;5.974;2023-07-29T05:02:52;3.80;;;3.13;;
78581;SDS011;67878;46.242;5.974;2023-07-29T05:05:18;3.15;;;2.80;;
78581;SDS011;67878;46.242;5.974;2023-07-29T05:07:43;3.58;;;2.95;;
78581;SDS011;67878;46.242;5.974;2023-07-29T05:10:09;4.18;;;3.22;;
78581;SDS011;67878;46.242;5.974;2023-07-29T05:12:34;3.60;;;2.88;;
78581;SDS011;67878;46.242;5.974;2023-07-29T05:14:59;4.32;;;3.13;;
78581;SDS011;67878;46.242;5.974;2023-07-29T05:17:25;3.92;;;2.92;;
78581;SDS011;67878;46.242;5.974;2023-07-29T05:19:50;4.43;;;3.40;;
78581;SDS011;67878;46.242;5.974;2023-07-29T05:22:16;4.65;;;3.47;;
78581;SDS011;67878;46.242;5.974;2023-07-29T05:24:41;3.83;;;3.03;;
78581;SDS011;67878;46.242;5.974;2023-07-29T05:27:06;3.50;;;3.13;;
78581;SDS011;67878;46.242;5.974;2023-07-29T05:29:33;3.05;;;2.78;;
78581;SDS011;67878;46.242;5.974;2023-07-29T05:31:59;3.58;;;2.90;;
78581;SDS011;67878;46.242;5.974;2023-07-29T05:34:24;3.47;;;3.03;;
78581;SDS011;67878;46.242;5.974;2023-07-29T05:36:49;3.97;;;3.00;;
78581;SDS011;67878;46.242;5.974;2023-07-29T05:39:15;3.00;;;2.70;;
78581;SDS011;67878;46.242;5.974;2023-07-29T05:41:40;4.63;;;2.95;;
78581;SDS011;67878;46.242;5.974;2023-07-29T05:44:05;3.63;;;2.92;;
78581;SDS011;67878;46.242;5.974;2023-07-29T05:46:31;3.88;;;2.92;;
78581;SDS011;67878;46.242;5.974;2023-07-29T05:48:56;4.47;;;3.05;;
78581;SDS011;67878;46.242;5.974;2023-07-29T05:51:21;3.88;;;3.17;;
78581;SDS011;67878;46.242;5.974;2023-07-29T05:53:47;3.67;;;2.63;;
78581;SDS011;67878;46.242;5.974;2023-07-29T05:56:13;3.33;;;2.80;;
78581;SDS011;67878;46.242;5.974;2023-07-29T05:58:38;3.55;;;2.85;;
78581;SDS011;67878;46.242;5.974;2023-07-29T06:01:03;3.83;;;3.15;;
78581;SDS011;67878;46.242;5.974;2023-07-29T06:03:29;4.35;;;2.88;;
78581;SDS011;67878;46.242;5.974;2023-07-29T06:05:54;4.30;;;3.15;;
78581;SDS011;67878;46.242;5.974;2023-07-29T06:08:19;3.08;;;2.78;;
78581;SDS011;67878;46.242;5.974;2023-07-29T06:10:45;3.17;;;2.75;;
78581;SDS011;67878;46.242;5.974;2023-07-29T06:13:10;3.53;;;3.03;;
78581;SDS011;67878;46.242;5.974;2023-07-29T06:15:36;3.45;;;2.80;;
78581;SDS011;67878;46.242;5.974;2023-07-29T06:18:01;4.53;;;2.83;;
78581;SDS011;67878;46.242;5.974;2023-07-29T06:20:26;3.33;;;2.78;;
78581;SDS011;67878;46.242;5.974;2023-07-29T06:22:52;3.58;;;2.60;;
78581;SDS011;67878;46.242;5.974;2023-07-29T06:25:17;4.43;;;3.25;;
78581;SDS011;67878;46.242;5.974;2023-07-29T06:27:44;3.28;;;2.70;;
78581;SDS011;67878;46.242;5.974;2023-07-29T06:30:12;4.35;;;3.28;;
78581;SDS011;67878;46.242;5.974;2023-07-29T06:32:37;3.33;;;3.03;;
78581;SDS011;67878;46.242;5.974;2023-07-29T06:35:03;2.95;;;2.67;;
78581;SDS011;67878;46.242;5.974;2023-07-29T06:37:28;3.55;;;3.15;;
78581;SDS011;67878;46.242;5.974;2023-07-29T06:39:54;4.13;;;3.10;;
78581;SDS011;67878;46.242;5.974;2023-07-29T06:42:19;3.92;;;3.00;;
78581;SDS011;67878;46.242;5.974;2023-07-29T06:44:44;3.33;;;2.83;;
78581;SDS011;67878;46.242;5.974;2023-07-29T06:47:11;3.72;;;3.00;;
78581;SDS011;67878;46.242;5.974;2023-07-29T06:49:36;3.30;;;2.40;;
78581;SDS011;67878;46.242;5.974;2023-07-29T06:52:02;3.90;;;2.70;;
78581;SDS011;67878;46.242;5.974;2023-07-29T06:54:27;3.25;;;2.70;;
78581;SDS011;67878;46.242;5.974;2023-07-29T06:56:53;3.50;;;2.83;;
78581;SDS011;67878;46.242;5.974;2023-07-29T06:59:18;2.95;;;2.65;;
78581;SDS011;67878;46.242;5.974;2023-07-29T07:01:43;3.25;;;2.67;;
78581;SDS011;67878;46.242;5.974;2023-07-29T07:04:09;3.53;;;2.80;;
78581;SDS011;67878;46.242;5.974;2023-07-29T07:06:34;4.07;;;2.95;;
78581;SDS011;67878;46.242;5.974;2023-07-29T07:09:00;3.33;;;2.85;;
78581;SDS011;67878;46.242;5.974;2023-07-29T07:11:25;3.97;;;2.78;;
78581;SDS011;67878;46.242;5.974;2023-07-29T07:13:50;3.17;;;2.80;;
78581;SDS011;67878;46.242;5.974;2023-07-29T07:16:16;3.47;;;2.80;;
78581;SDS011;67878;46.242;5.974;2023-07-29T07:18:41;2.75;;;2.50;;
78581;SDS011;67878;46.242;5.974;2023-07-29T07:21:07;3.90;;;3.38;;
78581;SDS011;67878;46.242;5.974;2023-07-29T07:23:32;2.72;;;2.47;;
78581;SDS011;67878;46.242;5.974;2023-07-29T07:25:57;2.92;;;2.60;;
78581;SDS011;67878;46.242;5.974;2023-07-29T07:28:23;2.80;;;2.53;;
78581;SDS011;67878;46.242;5.974;2023-07-29T07:30:48;3.60;;;2.85;;
78581;SDS011;67878;46.242;5.974;2023-07-29T07:33:14;3.33;;;2.65;;
78581;SDS011;67878;46.242;5.974;2023-07-29T07:35:39;4.05;;;2.80;;
78581;SDS011;67878;46.242;5.974;2023-07-29T07:38:07;2.60;;;2.38;;
78581;SDS011;67878;46.242;5.974;2023-07-29T07:40:34;3.22;;;2.67;;
78581;SDS011;67878;46.242;5.974;2023-07-29T07:43:00;3.53;;;2.88;;
78581;SDS011;67878;46.242;5.974;2023-07-29T07:45:26;3.13;;;2.70;;
78581;SDS011;67878;46.242;5.974;2023-07-29T07:47:52;2.70;;;2.50;;
78581;SDS011;67878;46.242;5.974;2023-07-29T07:50:18;2.83;;;2.45;;
78581;SDS011;67878;46.242;5.974;2023-07-29T07:52:44;2.85;;;2.60;;
78581;SDS011;67878;46.242;5.974;2023-07-29T07:55:09;2.88;;;2.47;;
78581;SDS011;67878;46.242;5.974;2023-07-29T07:57:34;4.13;;;2.85;;
78581;SDS011;67878;46.242;5.974;2023-07-29T08:00:00;2.67;;;2.42;;
78581;SDS011;67878;46.242;5.974;2023-07-29T08:02:25;2.88;;;2.50;;
78581;SDS011;67878;46.242;5.974;2023-07-29T08:04:50;2.88;;;2.58;;
78581;SDS011;67878;46.242;5.974;2023-07-29T08:07:16;3.65;;;2.67;;
78581;SDS011;67878;46.242;5.974;2023-07-29T08:09:41;2.78;;;2.47;;
78581;SDS011;67878;46.242;5.974;2023-07-29T08:12:07;2.53;;;2.30;;
78581;SDS011;67878;46.242;5.974;2023-07-29T08:14:32;3.42;;;2.65;;
78581;SDS011;67878;46.242;5.974;2023-07-29T08:16:58;3.40;;;2.85;;
78581;SDS011;67878;46.242;5.974;2023-07-29T08:19:23;4.10;;;2.83;;
78581;SDS011;67878;46.242;5.974;2023-07-29T08:21:49;4.15;;;2.58;;
78581;SDS011;67878;46.242;5.974;2023-07-29T08:24:14;2.65;;;2.33;;
78581;SDS011;67878;46.242;5.974;2023-07-29T08:26:39;2.90;;;2.58;;
78581;SDS011;67878;46.242;5.974;2023-07-29T08:29:05;3.15;;;2.75;;
78581;SDS011;67878;46.242;5.974;2023-07-29T08:31:30;4.13;;;2.80;;
78581;SDS011;67878;46.242;5.974;2023-07-29T08:33:58;4.00;;;2.47;;
78581;SDS011;67878;46.242;5.974;2023-07-29T08:36:24;3.33;;;2.78;;
78581;SDS011;67878;46.242;5.974;2023-07-29T08:38:50;6.97;;;2.55;;
78581;SDS011;67878;46.242;5.974;2023-07-29T08:43:52;3.85;;;2.47;;
78581;SDS011;67878;46.242;5.974;2023-07-29T08:46:23;2.70;;;2.30;;
78581;SDS011;67878;46.242;5.974;2023-07-29T08:48:49;2.95;;;2.40;;
78581;SDS011;67878;46.242;5.974;2023-07-29T08:51:14;2.70;;;2.30;;
78581;SDS011;67878;46.242;5.974;2023-07-29T08:53:40;3.20;;;2.67;;
78581;SDS011;67878;46.242;5.974;2023-07-29T08:56:07;3.15;;;2.67;;
78581;SDS011;67878;46.242;5.974;2023-07-29T08:58:33;3.38;;;2.35;;
78581;SDS011;67878;46.242;5.974;2023-07-29T09:01:00;2.88;;;2.42;;
78581;SDS011;67878;46.242;5.974;2023-07-29T09:03:25;3.85;;;2.50;;
78581;SDS011;67878;46.242;5.974;2023-07-29T09:05:51;4.45;;;2.72;;
78581;SDS011;67878;46.242;5.974;2023-07-29T09:08:17;2.70;;;2.38;;
78581;SDS011;67878;46.242;5.974;2023-07-29T09:10:43;3.72;;;2.70;;
78581;SDS011;67878;46.242;5.974;2023-07-29T09:13:08;3.70;;;2.58;;
78581;SDS011;67878;46.242;5.974;2023-07-29T09:15:35;4.00;;;2.35;;
78581;SDS011;67878;46.242;5.974;2023-07-29T09:18:11;3.33;;;2.38;;
78581;SDS011;67878;46.242;5.974;2023-07-29T09:20:40;4.22;;;2.40;;
78581;SDS011;67878;46.242;5.974;2023-07-29T09:23:07;3.17;;;2.47;;
78581;SDS011;67878;46.242;5.974;2023-07-29T09:25:34;3.13;;;2.53;;
78581;SDS011;67878;46.242;5.974;2023-07-29T09:28:00;2.65;;;2.25;;
78581;SDS011;67878;46.242;5.974;2023-07-29T09:30:26;4.30;;;3.00;;
78581;SDS011;67878;46.242;5.974;2023-07-29T09:32:56;3.10;;;2.80;;
78581;SDS011;67878;46.242;5.974;2023-07-29T09:35:22;3.17;;;2.88;;
78581;SDS011;67878;46.242;5.974;2023-07-29T09:37:47;4.13;;;3.00;;
78581;SDS011;67878;46.242;5.974;2023-07-29T09:40:16;4.20;;;2.70;;
78581;SDS011;67878;46.242;5.974;2023-07-29T09:42:49;3.38;;;2.67;;
78581;SDS011;67878;46.242;5.974;2023-07-29T09:45:19;4.05;;;3.03;;
78581;SDS011;67878;46.242;5.974;2023-07-29T09:47:46;4.05;;;2.58;;
78581;SDS011;67878;46.242;5.974;2023-07-29T09:50:12;3.80;;;3.33;;
78581;SDS011;67878;46.242;5.974;2023-07-29T09:52:37;5.03;;;2.80;;
78581;SDS011;67878;46.242;5.974;2023-07-29T09:55:03;3.70;;;2.90;;
78581;SDS011;67878;46.242;5.974;2023-07-29T09:57:29;10.20;;;3.40;;
78581;SDS011;67878;46.242;5.974;2023-07-29T09:59:55;3.45;;;2.97;;
78581;SDS011;67878;46.242;5.974;2023-07-29T10:02:21;3.60;;;3.03;;
78581;SDS011;67878;46.242;5.974;2023-07-29T10:04:47;3.80;;;2.75;;
78581;SDS011;67878;46.242;5.974;2023-07-29T10:07:13;3.58;;;2.47;;
78581;SDS011;67878;46.242;5.974;2023-07-29T10:09:40;3.53;;;2.75;;
78581;SDS011;67878;46.242;5.974;2023-07-29T10:12:06;3.47;;;2.70;;
78581;SDS011;67878;46.242;5.974;2023-07-29T10:14:33;3.08;;;2.72;;
78581;SDS011;67878;46.242;5.974;2023-07-29T10:16:58;3.47;;;2.83;;
78581;SDS011;67878;46.242;5.974;2023-07-29T10:19:25;5.05;;;2.80;;
78581;SDS011;67878;46.242;5.974;2023-07-29T10:21:51;2.92;;;2.53;;
78581;SDS011;67878;46.242;5.974;2023-07-29T10:24:22;4.45;;;3.08;;
78581;SDS011;67878;46.242;5.974;2023-07-29T10:26:53;4.90;;;2.65;;
78581;SDS011;67878;46.242;5.974;2023-07-29T10:29:24;5.00;;;2.50;;
78581;SDS011;67878;46.242;5.974;2023-07-29T10:31:53;6.72;;;3.30;;
78581;SDS011;67878;46.242;5.974;2023-07-29T10:34:20;3.38;;;2.78;;
78581;SDS011;67878;46.242;5.974;2023-07-29T10:36:47;3.05;;;2.70;;
78581;SDS011;67878;46.242;5.974;2023-07-29T10:39:14;3.60;;;2.53;;
78581;SDS011;67878;46.242;5.974;2023-07-29T10:42:02;3.35;;;2.50;;
78581;SDS011;67878;46.242;5.974;2023-07-29T10:47:13;4.03;;;2.78;;
78581;SDS011;67878;46.242;5.974;2023-07-29T10:49:57;4.75;;;2.70;;
78581;SDS011;67878;46.242;5.974;2023-07-29T10:55:30;4.28;;;2.70;;
78581;SDS011;67878;46.242;5.974;2023-07-29T10:58:14;3.13;;;2.55;;
78581;SDS011;67878;46.242;5.974;2023-07-29T11:00:44;4.10;;;2.70;;
78581;SDS011;67878;46.242;5.974;2023-07-29T11:03:11;5.97;;;2.70;;
78581;SDS011;67878;46.242;5.974;2023-07-29T11:05:41;4.78;;;2.88;;
78581;SDS011;67878;46.242;5.974;2023-07-29T11:08:18;3.22;;;2.38;;
78581;SDS011;67878;46.242;5.974;2023-07-29T11:13:33;5.00;;;2.67;;
78581;SDS011;67878;46.242;5.974;2023-07-29T11:16:04;2.70;;;2.47;;
78581;SDS011;67878;46.242;5.974;2023-07-29T11:18:34;4.97;;;3.10;;
78581;SDS011;67878;46.242;5.974;2023-07-29T11:21:10;3.88;;;2.85;;
78581;SDS011;67878;46.242;5.974;2023-07-29T11:23:41;3.88;;;2.60;;
78581;SDS011;67878;46.242;5.974;2023-07-29T11:26:08;4.80;;;2.83;;
78581;SDS011;67878;46.242;5.974;2023-07-29T11:28:39;5.00;;;2.80;;
78581;SDS011;67878;46.242;5.974;2023-07-29T11:31:07;3.95;;;3.08;;
78581;SDS011;67878;46.242;5.974;2023-07-29T11:33:33;6.03;;;3.67;;
78581;SDS011;67878;46.242;5.974;2023-07-29T11:35:59;4.97;;;3.83;;
78581;SDS011;67878;46.242;5.974;2023-07-29T11:38:24;6.53;;;4.03;;
78581;SDS011;67878;46.242;5.974;2023-07-29T11:40:56;6.55;;;4.20;;
78581;SDS011;67878;46.242;5.974;2023-07-29T11:43:23;8.82;;;4.55;;
78581;SDS011;67878;46.242;5.974;2023-07-29T11:45:48;6.38;;;4.43;;
78581;SDS011;67878;46.242;5.974;2023-07-29T11:48:14;6.25;;;3.97;;
78581;SDS011;67878;46.242;5.974;2023-07-29T11:50:39;7.00;;;4.03;;
78581;SDS011;67878;46.242;5.974;2023-07-29T11:53:05;8.05;;;4.03;;
78581;SDS011;67878;46.242;5.974;2023-07-29T11:55:30;7.00;;;3.60;;
78581;SDS011;67878;46.242;5.974;2023-07-29T11:57:55;7.80;;;4.40;;
78581;SDS011;67878;46.242;5.974;2023-07-29T12:00:21;5.38;;;3.80;;
78581;SDS011;67878;46.242;5.974;2023-07-29T12:02:47;5.93;;;4.00;;
78581;SDS011;67878;46.242;5.974;2023-07-29T12:05:13;3.95;;;3.47;;
78581;SDS011;67878;46.242;5.974;2023-07-29T12:07:41;5.32;;;3.70;;
78581;SDS011;67878;46.242;5.974;2023-07-29T12:10:08;4.50;;;3.47;;
78581;SDS011;67878;46.242;5.974;2023-07-29T12:12:38;5.22;;;4.03;;
78581;SDS011;67878;46.242;5.974;2023-07-29T12:15:09;6.03;;;4.10;;
78581;SDS011;67878;46.242;5.974;2023-07-29T12:17:37;7.38;;;3.92;;
78581;SDS011;67878;46.242;5.974;2023-07-29T12:20:07;4.82;;;3.65;;
78581;SDS011;67878;46.242;5.974;2023-07-29T12:22:33;5.22;;;3.72;;
78581;SDS011;67878;46.242;5.974;2023-07-29T12:25:02;5.13;;;3.67;;
78581;SDS011;67878;46.242;5.974;2023-07-29T12:27:29;4.65;;;3.30;;
78581;SDS011;67878;46.242;5.974;2023-07-29T12:29:55;5.53;;;3.50;;
78581;SDS011;67878;46.242;5.974;2023-07-29T12:32:20;5.47;;;3.50;;
78581;SDS011;67878;46.242;5.974;2023-07-29T12:34:52;5.03;;;3.70;;
78581;SDS011;67878;46.242;5.974;2023-07-29T12:37:18;4.30;;;3.20;;
78581;SDS011;67878;46.242;5.974;2023-07-29T12:39:43;4.40;;;3.40;;
78581;SDS011;67878;46.242;5.974;2023-07-29T12:42:09;4.78;;;3.45;;
78581;SDS011;67878;46.242;5.974;2023-07-29T12:44:35;4.18;;;3.08;;
78581;SDS011;67878;46.242;5.974;2023-07-29T12:47:02;3.80;;;3.25;;
78581;SDS011;67878;46.242;5.974;2023-07-29T12:49:29;4.10;;;3.33;;
78581;SDS011;67878;46.242;5.974;2023-07-29T12:51:55;3.78;;;3.30;;
78581;SDS011;67878;46.242;5.974;2023-07-29T12:54:21;5.20;;;3.25;;
78581;SDS011;67878;46.242;5.974;2023-07-29T12:56:47;5.35;;;3.53;;
78581;SDS011;67878;46.242;5.974;2023-07-29T12:59:12;4.93;;;3.83;;
78581;SDS011;67878;46.242;5.974;2023-07-29T13:01:37;4.57;;;3.20;;
78581;SDS011;67878;46.242;5.974;2023-07-29T13:04:03;3.30;;;2.83;;
78581;SDS011;67878;46.242;5.974;2023-07-29T13:06:28;4.80;;;3.35;;
78581;SDS011;67878;46.242;5.974;2023-07-29T13:08:53;3.38;;;3.08;;
78581;SDS011;67878;46.242;5.974;2023-07-29T13:11:19;3.42;;;3.00;;
78581;SDS011;67878;46.242;5.974;2023-07-29T13:13:44;4.05;;;3.28;;
78581;SDS011;67878;46.242;5.974;2023-07-29T13:16:10;3.78;;;2.90;;
78581;SDS011;67878;46.242;5.974;2023-07-29T13:18:36;3.83;;;3.17;;
78581;SDS011;67878;46.242;5.974;2023-07-29T13:21:01;3.25;;;2.95;;
78581;SDS011;67878;46.242;5.974;2023-07-29T13:23:27;2.90;;;2.55;;
78581;SDS011;67878;46.242;5.974;2023-07-29T13:25:54;4.13;;;2.85;;
78581;SDS011;67878;46.242;5.974;2023-07-29T13:28:20;4.20;;;3.13;;
78581;SDS011;67878;46.242;5.974;2023-07-29T13:30:45;5.00;;;3.13;;
78581;SDS011;67878;46.242;5.974;2023-07-29T13:33:11;5.18;;;2.58;;
78581;SDS011;67878;46.242;5.974;2023-07-29T13:35:36;3.15;;;2.75;;
78581;SDS011;67878;46.242;5.974;2023-07-29T13:38:02;2.78;;;2.45;;
78581;SDS011;67878;46.242;5.974;2023-07-29T13:40:27;3.63;;;2.75;;
78581;SDS011;67878;46.242;5.974;2023-07-29T13:42:53;3.53;;;2.70;;
78581;SDS011;67878;46.242;5.974;2023-07-29T13:45:19;3.67;;;2.60;;
78581;SDS011;67878;46.242;5.974;2023-07-29T13:47:44;4.90;;;2.95;;
78581;SDS011;67878;46.242;5.974;2023-07-29T13:50:10;3.88;;;2.75;;
78581;SDS011;67878;46.242;5.974;2023-07-29T13:52:36;4.03;;;3.03;;
78581;SDS011;67878;46.242;5.974;2023-07-29T13:55:04;4.03;;;3.33;;
78581;SDS011;67878;46.242;5.974;2023-07-29T13:57:31;4.57;;;3.15;;
78581;SDS011;67878;46.242;5.974;2023-07-29T13:59:56;3.63;;;2.97;;
78581;SDS011;67878;46.242;5.974;2023-07-29T14:02:22;5.55;;;3.05;;
78581;SDS011;67878;46.242;5.974;2023-07-29T14:04:47;3.80;;;3.03;;
78581;SDS011;67878;46.242;5.974;2023-07-29T14:07:13;4.28;;;3.22;;
78581;SDS011;67878;46.242;5.974;2023-07-29T14:09:38;4.80;;;3.13;;
78581;SDS011;67878;46.242;5.974;2023-07-29T14:12:04;3.45;;;2.97;;
78581;SDS011;67878;46.242;5.974;2023-07-29T14:14:30;4.40;;;3.40;;
78581;SDS011;67878;46.242;5.974;2023-07-29T14:16:55;4.20;;;3.05;;
78581;SDS011;67878;46.242;5.974;2023-07-29T14:19:21;4.38;;;3.13;;
78581;SDS011;67878;46.242;5.974;2023-07-29T14:21:46;5.10;;;3.15;;
78581;SDS011;67878;46.242;5.974;2023-07-29T14:24:11;4.03;;;3.35;;
78581;SDS011;67878;46.242;5.974;2023-07-29T14:26:37;3.33;;;2.97;;
78581;SDS011;67878;46.242;5.974;2023-07-29T14:29:02;3.90;;;3.13;;
78581;SDS011;67878;46.242;5.974;2023-07-29T14:31:28;4.47;;;3.10;;
78581;SDS011;67878;46.242;5.974;2023-07-29T14:33:53;3.88;;;2.70;;
78581;SDS011;67878;46.242;5.974;2023-07-29T14:36:18;5.10;;;3.15;;
78581;SDS011;67878;46.242;5.974;2023-07-29T14:38:44;4.60;;;3.30;;
78581;SDS011;67878;46.242;5.974;2023-07-29T14:41:09;3.25;;;2.70;;
78581;SDS011;67878;46.242;5.974;2023-07-29T14:43:34;6.70;;;3.05;;
78581;SDS011;67878;46.242;5.974;2023-07-29T14:46:00;4.25;;;3.03;;
78581;SDS011;67878;46.242;5.974;2023-07-29T14:48:26;3.85;;;3.00;;
78581;SDS011;67878;46.242;5.974;2023-07-29T14:50:51;4.50;;;2.75;;
78581;SDS011;67878;46.242;5.974;2023-07-29T14:53:17;3.83;;;2.70;;
78581;SDS011;67878;46.242;5.974;2023-07-29T14:55:43;3.63;;;2.67;;